createdAt,value
2022-11-05T00:00:19.147Z,34.25
2022-11-05T00:02:20.619Z,31.55
2022-11-05T00:06:32.125Z,28.25
2022-11-05T00:08:35.285Z,26.88
2022-11-05T00:10:38.455Z,26.65
2022-11-05T00:12:40.284Z,33.45
2022-11-05T00:14:41.869Z,30.30
2022-11-05T00:16:43.406Z,28.48
2022-11-05T00:18:45.066Z,29.45
2022-11-05T00:20:46.576Z,29.02
2022-11-05T00:22:48.110Z,31.08
2022-11-05T00:24:50.979Z,31.83
2022-11-05T00:26:52.492Z,30.17
2022-11-05T00:28:54.046Z,26.77
2022-11-05T00:31:00.525Z,35.92
2022-11-05T00:33:02.243Z,27.17
2022-11-05T00:35:04.373Z,39.55
2022-11-05T00:37:05.878Z,36.50
2022-11-05T00:39:07.406Z,30.10
2022-11-05T00:41:10.343Z,28.45
2022-11-05T00:43:12.817Z,41.90
2022-11-05T00:45:14.906Z,30.35
2022-11-05T00:47:16.405Z,27.55
2022-11-05T00:49:17.906Z,31.58
2022-11-05T00:51:19.696Z,29.77
2022-11-05T00:53:21.253Z,33.28
2022-11-05T00:55:23.407Z,31.52
2022-11-05T00:57:26.332Z,32.85
2022-11-05T00:59:27.858Z,32.80
2022-11-05T01:01:29.451Z,27.92
2022-11-05T01:03:34.130Z,22.85
2022-11-05T01:05:39.087Z,26.15
2022-11-05T01:07:40.900Z,27.15
2022-11-05T01:09:42.401Z,30.77
2022-11-05T01:11:43.885Z,25.85
2022-11-05T01:13:47.183Z,27.00
2022-11-05T01:15:49.921Z,27.00
2022-11-05T01:17:51.940Z,22.90
2022-11-05T01:19:53.460Z,31.00
2022-11-05T01:21:54.986Z,26.05
2022-11-05T01:23:56.589Z,28.48
2022-11-05T01:25:58.541Z,25.20
2022-11-05T01:28:01.282Z,21.30
2022-11-05T01:30:06.190Z,26.42
2022-11-05T01:32:07.720Z,28.95
2022-11-05T01:34:09.228Z,27.77
2022-11-05T01:36:10.780Z,24.75
2022-11-05T01:38:12.457Z,30.17
2022-11-05T01:40:15.761Z,23.80
2022-11-05T01:42:21.412Z,25.88
2022-11-05T01:45:02.260Z,40.50
2022-11-05T01:47:05.415Z,37.85
2022-11-05T01:49:13.388Z,29.73
2022-11-05T01:51:18.223Z,41.65
2022-11-05T01:53:25.028Z,35.78
2022-11-05T01:55:31.752Z,30.25
2022-11-05T01:57:33.472Z,29.75
2022-11-05T01:59:38.643Z,33.13
2022-11-05T02:04:11.324Z,22.02
2022-11-05T02:06:15.908Z,28.45
2022-11-05T02:08:25.943Z,28.88
2022-11-05T02:10:27.933Z,26.27
2022-11-05T02:12:30.174Z,28.35
2022-11-05T02:14:31.629Z,33.40
2022-11-05T02:16:39.411Z,25.33
2022-11-05T02:18:53.026Z,27.55
2022-11-05T02:23:45.348Z,29.08
2022-11-05T02:26:29.399Z,26.38
2022-11-05T02:29:01.711Z,25.95
2022-11-05T02:31:13.671Z,22.88
2022-11-05T02:33:33.304Z,29.67
2022-11-05T02:35:59.503Z,29.23
2022-11-05T02:40:17.271Z,31.92
2022-11-05T02:42:30.272Z,32.25
2022-11-05T02:44:41.327Z,32.80
2022-11-05T02:46:51.568Z,33.55
2022-11-05T02:48:58.813Z,26.88
2022-11-05T02:51:08.625Z,27.15
2022-11-05T02:53:16.043Z,29.58
2022-11-05T02:55:25.088Z,34.15
2022-11-05T02:57:28.811Z,27.55
2022-11-05T02:59:30.499Z,28.27
2022-11-05T03:01:32.099Z,29.05
2022-11-05T03:03:39.733Z,26.33
2022-11-05T03:05:50.648Z,30.00
2022-11-05T03:07:59.184Z,31.55
2022-11-05T03:10:14.270Z,24.98
2022-11-05T03:12:23.724Z,27.58
2022-11-05T03:14:39.356Z,27.17
2022-11-05T03:16:44.266Z,23.70
2022-11-05T03:18:56.660Z,29.25
2022-11-05T03:21:02.706Z,21.27
2022-11-05T03:23:11.092Z,26.33
2022-11-05T03:25:17.625Z,24.88
2022-11-05T03:27:23.456Z,26.45
2022-11-05T03:29:30.109Z,24.42
2022-11-05T03:31:34.116Z,23.20
2022-11-05T03:33:37.711Z,26.92
2022-11-05T03:35:46.361Z,28.38
2022-11-05T03:37:51.745Z,25.77
2022-11-05T03:39:58.858Z,26.17
2022-11-05T03:42:03.746Z,30.55
2022-11-05T03:44:08.278Z,25.27
2022-11-05T03:46:15.743Z,35.42
2022-11-05T03:48:19.989Z,24.13
2022-11-05T03:50:27.208Z,24.90
2022-11-05T03:52:35.907Z,29.63
2022-11-05T03:54:37.655Z,24.38
2022-11-05T03:56:44.385Z,24.92
2022-11-05T03:58:47.261Z,31.05
2022-11-05T04:00:49.664Z,28.73
2022-11-05T04:02:51.624Z,26.27
2022-11-05T04:04:54.787Z,30.08
2022-11-05T04:06:56.259Z,28.05
2022-11-05T04:08:59.099Z,38.78
2022-11-05T04:11:00.563Z,40.85
2022-11-05T04:13:02.046Z,30.38
2022-11-05T04:15:03.939Z,24.67
2022-11-05T04:17:05.620Z,34.67
2022-11-05T04:19:07.108Z,34.13
2022-11-05T04:21:10.121Z,39.75
2022-11-05T04:23:11.916Z,42.45
2022-11-05T04:25:16.387Z,52.15
2022-11-05T04:27:17.862Z,52.22
2022-11-05T04:29:19.396Z,43.05
2022-11-05T04:31:20.866Z,38.60
2022-11-05T04:33:22.337Z,34.72
2022-11-05T04:35:24.369Z,48.58
2022-11-05T04:37:25.847Z,46.95
2022-11-05T04:39:27.304Z,45.17
2022-11-05T04:41:30.133Z,45.78
2022-11-05T04:43:31.608Z,50.45
2022-11-05T04:45:34.702Z,43.58
2022-11-05T04:47:36.165Z,50.80
2022-11-05T04:49:37.634Z,44.70
2022-11-05T04:51:39.093Z,42.67
2022-11-05T04:53:40.559Z,41.33
2022-11-05T04:55:42.060Z,45.58
2022-11-05T04:57:47.669Z,40.00
2022-11-05T04:59:49.135Z,43.47
2022-11-05T05:01:51.432Z,49.95
2022-11-05T05:03:54.059Z,38.38
2022-11-05T05:06:03.553Z,37.83
2022-11-05T05:08:05.818Z,49.50
2022-11-05T05:10:09.041Z,50.45
2022-11-05T05:12:10.536Z,41.40
2022-11-05T05:14:13.340Z,45.05
2022-11-05T05:16:19.424Z,38.88
2022-11-05T05:18:20.908Z,42.08
2022-11-05T05:20:22.361Z,40.80
2022-11-05T05:22:23.841Z,45.42
2022-11-05T05:24:25.310Z,40.20
2022-11-05T05:26:26.783Z,36.10
2022-11-05T05:28:28.392Z,39.28
2022-11-05T05:30:31.223Z,37.40
2022-11-05T05:32:33.125Z,48.47
2022-11-05T05:34:34.591Z,46.53
2022-11-05T05:36:36.046Z,41.17
2022-11-05T05:38:37.667Z,43.50
2022-11-05T05:40:39.116Z,54.75
2022-11-05T05:42:43.440Z,49.13
2022-11-05T05:44:45.132Z,43.80
2022-11-05T05:46:47.968Z,45.50
2022-11-05T05:48:51.006Z,51.53
2022-11-05T05:50:52.439Z,52.45
2022-11-05T05:52:53.945Z,49.58
2022-11-05T05:54:55.437Z,48.42
2022-11-05T05:56:56.899Z,47.95
2022-11-05T05:58:58.359Z,53.72
2022-11-05T06:01:00.701Z,48.58
2022-11-05T06:03:03.721Z,42.38
2022-11-05T06:05:05.737Z,42.53
2022-11-05T06:07:07.383Z,47.22
2022-11-05T06:09:08.857Z,59.97
2022-11-05T06:11:10.413Z,49.92
2022-11-05T06:13:12.228Z,46.63
2022-11-05T06:15:13.889Z,55.95
2022-11-05T06:17:15.372Z,42.80
2022-11-05T06:19:18.209Z,45.10
2022-11-05T06:21:19.765Z,58.22
2022-11-05T06:23:21.273Z,46.35
2022-11-05T06:25:22.833Z,57.58
2022-11-05T06:27:24.271Z,57.08
2022-11-05T06:29:25.769Z,50.05
2022-11-05T06:31:27.229Z,52.38
2022-11-05T06:33:28.843Z,49.97
2022-11-05T06:35:32.152Z,65.38
2022-11-05T06:37:33.578Z,55.67
2022-11-05T06:39:35.039Z,53.28
2022-11-05T06:41:56.977Z,51.42
2022-11-05T06:43:58.062Z,54.05
2022-11-05T06:46:01.794Z,58.38
2022-11-05T06:48:03.532Z,59.28
2022-11-05T06:50:05.765Z,56.45
2022-11-05T06:52:08.652Z,57.30
2022-11-05T06:54:10.213Z,67.18
2022-11-05T06:56:11.710Z,50.38
2022-11-05T06:58:13.372Z,69.68
2022-11-05T07:00:15.797Z,64.90
2022-11-05T07:02:17.285Z,65.65
2022-11-05T07:04:18.885Z,48.08
2022-11-05T07:06:20.426Z,63.13
2022-11-05T07:08:23.407Z,65.75
2022-11-05T07:10:25.156Z,61.28
2022-11-05T07:12:26.621Z,55.83
2022-11-05T07:14:28.063Z,52.92
2022-11-05T07:16:29.571Z,51.72
2022-11-05T07:18:31.049Z,67.47
2022-11-05T07:20:34.418Z,57.03
2022-11-05T07:22:36.964Z,55.05
2022-11-05T07:24:39.764Z,55.15
2022-11-05T07:26:41.312Z,57.45
2022-11-05T07:28:42.815Z,61.00
2022-11-05T07:30:44.247Z,52.22
2022-11-05T07:32:45.709Z,48.80
2022-11-05T07:34:47.183Z,52.38
2022-11-05T07:36:48.651Z,51.38
2022-11-05T07:38:50.140Z,62.70
2022-11-05T07:40:52.973Z,60.13
2022-11-05T07:42:56.214Z,46.67
2022-11-05T07:44:57.662Z,67.00
2022-11-05T07:46:59.125Z,45.00
2022-11-05T07:49:00.592Z,50.13
2022-11-05T07:51:02.047Z,47.53
2022-11-05T07:53:05.336Z,52.03
2022-11-05T07:55:07.939Z,60.60
2022-11-05T07:57:10.739Z,48.60
2022-11-05T07:59:12.250Z,51.45
2022-11-05T08:01:13.753Z,48.67
2022-11-05T08:03:18.034Z,47.10
2022-11-05T08:05:19.879Z,50.45
2022-11-05T08:07:21.328Z,47.60
2022-11-05T08:09:22.794Z,52.03
2022-11-05T08:11:24.278Z,61.45
2022-11-05T08:13:27.157Z,59.03
2022-11-05T08:15:29.051Z,60.63
2022-11-05T08:17:30.510Z,62.05
2022-11-05T08:19:31.988Z,51.63
2022-11-05T08:21:33.448Z,51.67
2022-11-05T08:23:34.960Z,47.60
2022-11-05T08:25:36.456Z,51.42
2022-11-05T08:27:38.059Z,43.47
2022-11-05T08:29:40.875Z,47.72
2022-11-05T08:31:42.339Z,41.47
2022-11-05T08:33:44.132Z,45.00
2022-11-05T08:35:45.619Z,46.10
2022-11-05T08:37:47.069Z,44.38
2022-11-05T08:39:48.564Z,46.05
2022-11-05T08:41:50.022Z,44.35
2022-11-05T08:43:54.279Z,41.03
2022-11-05T08:45:59.335Z,43.00
2022-11-05T08:48:01.548Z,41.28
2022-11-05T08:50:03.410Z,42.28
2022-11-05T08:52:04.933Z,40.17
2022-11-05T08:54:06.645Z,41.78
2022-11-05T08:56:08.532Z,40.22
2022-11-05T08:58:12.176Z,41.10
2022-11-05T09:00:14.819Z,38.78
2022-11-05T09:02:17.751Z,42.13
2022-11-05T09:04:19.322Z,40.72
2022-11-05T09:06:20.943Z,38.47
2022-11-05T09:08:22.422Z,33.90
2022-11-05T09:10:24.249Z,29.95
2022-11-05T09:12:25.729Z,31.95
2022-11-05T09:14:27.231Z,33.90
2022-11-05T09:16:28.797Z,32.90
2022-11-05T09:18:31.659Z,31.13
2022-11-05T09:20:33.912Z,31.55
2022-11-05T09:22:39.206Z,32.67
2022-11-05T09:24:44.489Z,25.80
2022-11-05T09:26:45.983Z,30.00
2022-11-05T09:28:47.470Z,26.98
2022-11-05T09:30:50.589Z,28.52
2022-11-05T09:32:52.239Z,24.85
2022-11-05T09:34:55.117Z,24.88
2022-11-05T09:36:57.143Z,25.33
2022-11-05T09:38:58.623Z,25.45
2022-11-05T09:41:02.299Z,24.35
2022-11-05T09:43:05.379Z,21.17
2022-11-05T09:45:13.432Z,22.58
2022-11-05T09:47:20.152Z,22.17
2022-11-05T09:49:27.638Z,22.70
2022-11-05T09:51:31.533Z,24.95
2022-11-05T09:53:38.016Z,17.17
2022-11-05T09:55:42.318Z,23.30
2022-11-05T09:57:45.920Z,22.55
2022-11-05T09:59:51.017Z,23.52
2022-11-05T10:01:57.749Z,18.92
2022-11-05T10:04:05.724Z,22.45
2022-11-05T10:06:09.459Z,22.65
2022-11-05T10:08:18.023Z,23.45
2022-11-05T10:10:30.370Z,20.30
2022-11-05T10:12:39.117Z,21.98
2022-11-05T10:14:44.443Z,21.75
2022-11-05T10:16:51.967Z,18.70
2022-11-05T10:18:59.040Z,16.67
2022-11-05T10:21:01.014Z,20.00
2022-11-05T10:23:10.715Z,19.50
2022-11-05T10:25:19.064Z,18.58
2022-11-05T10:27:23.803Z,22.65
2022-11-05T10:29:27.329Z,19.73
2022-11-05T10:31:35.525Z,20.40
2022-11-05T10:33:42.112Z,17.90
2022-11-05T10:35:48.485Z,16.80
2022-11-05T10:37:50.636Z,18.88
2022-11-05T10:39:52.172Z,15.70
2022-11-05T10:42:09.533Z,18.42
2022-11-05T10:44:27.989Z,13.80
2022-11-05T10:46:35.119Z,13.98
2022-11-05T10:49:00.812Z,14.27
2022-11-05T10:51:02.296Z,14.15
2022-11-05T10:53:14.379Z,15.20
2022-11-05T10:55:20.805Z,16.90
2022-11-05T10:57:34.354Z,18.35
2022-11-05T11:01:37.753Z,13.27
2022-11-05T11:03:43.166Z,13.05
2022-11-05T11:05:44.647Z,13.30
2022-11-05T11:07:53.863Z,13.40
2022-11-05T11:09:55.429Z,14.10
2022-11-05T11:12:04.230Z,11.10
2022-11-05T11:14:19.419Z,12.02
2022-11-05T11:16:22.700Z,13.18
2022-11-05T11:18:27.597Z,9.98
2022-11-05T11:20:30.952Z,12.30
2022-11-05T11:22:32.611Z,12.65
2022-11-05T11:24:38.668Z,16.20
2022-11-05T11:26:40.692Z,13.32
2022-11-05T11:28:46.979Z,13.73
2022-11-05T11:30:53.796Z,14.80
2022-11-05T11:32:59.702Z,12.25
2022-11-05T11:35:01.968Z,13.88
2022-11-05T11:37:07.779Z,15.02
2022-11-05T11:39:15.566Z,13.60
2022-11-05T11:41:25.100Z,10.50
2022-11-05T11:43:28.743Z,12.85
2022-11-05T11:45:33.682Z,14.35
2022-11-05T11:47:43.456Z,10.70
2022-11-05T11:49:46.988Z,10.38
2022-11-05T11:51:50.274Z,10.50
2022-11-05T11:53:57.133Z,12.15
2022-11-05T11:56:05.355Z,10.85
2022-11-05T11:58:09.745Z,10.10
2022-11-05T12:00:12.246Z,10.98
2022-11-05T12:02:50.323Z,11.90
2022-11-05T12:05:10.813Z,10.55
2022-11-05T12:07:25.013Z,10.80
2022-11-05T12:09:40.363Z,9.32
2022-11-05T12:11:48.875Z,8.80
2022-11-05T12:14:01.154Z,12.25
2022-11-05T12:16:14.352Z,8.02
2022-11-05T12:18:25.612Z,10.75
2022-11-05T12:20:38.081Z,8.18
2022-11-05T12:22:57.095Z,9.23
2022-11-05T12:25:12.856Z,11.23
2022-11-05T12:27:24.176Z,9.60
2022-11-05T12:29:45.134Z,9.95
2022-11-05T12:32:02.229Z,9.65
2022-11-05T12:34:19.399Z,11.27
2022-11-05T12:36:43.072Z,8.77
2022-11-05T12:39:18.715Z,7.25
2022-11-05T12:41:25.496Z,12.43
2022-11-05T12:43:36.404Z,11.15
2022-11-05T12:45:47.008Z,6.78
2022-11-05T12:48:04.727Z,12.60
2022-11-05T12:50:20.442Z,8.18
2022-11-05T12:52:48.647Z,6.65
2022-11-05T12:55:03.700Z,8.13
2022-11-05T12:57:08.640Z,9.57
2022-11-05T12:59:18.036Z,10.65
2022-11-05T13:01:26.605Z,7.82
2022-11-05T13:03:40.100Z,9.63
2022-11-05T13:07:54.555Z,7.63
2022-11-05T13:10:01.229Z,8.13
2022-11-05T13:12:06.387Z,8.02
2022-11-05T13:14:12.837Z,6.43
2022-11-05T13:16:26.904Z,9.40
2022-11-05T13:18:35.000Z,10.15
2022-11-05T13:20:39.902Z,9.70
2022-11-05T13:22:45.990Z,7.10
2022-11-05T13:24:49.875Z,9.07
2022-11-05T13:26:56.462Z,8.18
2022-11-05T13:29:04.268Z,7.32
2022-11-05T13:31:10.526Z,12.00
2022-11-05T13:33:16.437Z,9.48
2022-11-05T13:35:25.161Z,9.57
2022-11-05T13:37:31.050Z,9.88
2022-11-05T13:39:36.378Z,8.60
2022-11-05T13:41:53.221Z,8.80
2022-11-05T13:44:22.115Z,10.25
2022-11-05T13:46:37.648Z,11.52
2022-11-05T13:49:04.728Z,9.35
2022-11-05T13:51:22.603Z,8.40
2022-11-05T13:53:51.099Z,9.40
2022-11-05T13:56:04.653Z,8.02
2022-11-05T13:58:45.182Z,9.05
2022-11-05T14:01:02.980Z,10.25
2022-11-05T14:03:14.231Z,9.52
2022-11-05T14:05:23.865Z,8.07
2022-11-05T14:07:28.916Z,8.75
2022-11-05T14:09:33.322Z,6.90
2022-11-05T14:11:38.100Z,6.68
2022-11-05T14:13:42.028Z,9.00
2022-11-05T14:15:55.374Z,6.25
2022-11-05T14:18:00.000Z,7.57
2022-11-05T14:20:24.798Z,6.60
2022-11-05T14:22:38.080Z,8.10
2022-11-05T14:24:41.698Z,5.80
2022-11-05T14:26:44.579Z,10.43
2022-11-05T14:28:48.655Z,9.60
2022-11-05T14:30:50.203Z,6.75
2022-11-05T14:33:02.384Z,7.15
2022-11-05T14:35:33.438Z,9.02
2022-11-05T14:37:36.606Z,10.02
2022-11-05T14:39:39.069Z,7.22
2022-11-05T14:42:01.157Z,5.38
2022-11-05T14:44:07.306Z,10.70
2022-11-05T14:46:09.698Z,8.82
2022-11-05T14:48:27.709Z,7.38
2022-11-05T14:50:36.768Z,8.30
2022-11-05T14:52:40.789Z,8.02
2022-11-05T14:54:45.599Z,6.53
2022-11-05T14:56:55.866Z,13.02
2022-11-05T14:59:34.759Z,8.93
2022-11-05T15:01:54.822Z,7.70
2022-11-05T15:04:16.439Z,13.20
2022-11-05T15:06:30.330Z,8.05
2022-11-05T15:08:36.635Z,9.55
2022-11-05T15:10:38.994Z,8.02
2022-11-05T15:12:45.388Z,6.13
2022-11-05T15:14:54.192Z,8.13
2022-11-05T15:17:01.627Z,9.65
2022-11-05T15:19:04.899Z,8.27
2022-11-05T15:21:10.419Z,8.45
2022-11-05T15:23:16.729Z,10.45
2022-11-05T15:25:21.303Z,6.43
2022-11-05T15:27:38.955Z,10.82
2022-11-05T15:29:40.726Z,6.68
2022-11-05T15:31:43.770Z,10.90
2022-11-05T15:33:46.721Z,8.00
2022-11-05T15:35:48.300Z,9.40
2022-11-05T15:37:54.807Z,9.35
2022-11-05T15:39:57.536Z,8.18
2022-11-05T15:42:02.402Z,7.80
2022-11-05T15:44:04.084Z,8.73
2022-11-05T15:46:07.672Z,9.55
2022-11-05T15:48:19.656Z,9.88
2022-11-05T15:50:21.314Z,9.23
2022-11-05T15:52:24.815Z,9.30
2022-11-05T15:54:30.967Z,9.07
2022-11-05T15:56:36.349Z,8.40
2022-11-05T15:58:46.288Z,10.18
2022-11-05T16:00:48.800Z,7.40
2022-11-05T16:02:53.898Z,8.43
2022-11-05T16:04:58.551Z,8.48
2022-11-05T16:07:06.493Z,9.25
2022-11-05T16:09:19.482Z,9.40
2022-11-05T16:11:22.990Z,7.55
2022-11-05T16:13:31.670Z,7.85
2022-11-05T16:15:33.168Z,11.30
2022-11-05T16:17:46.517Z,7.65
2022-11-05T16:19:48.731Z,13.25
2022-11-05T16:21:55.058Z,9.13
2022-11-05T16:23:58.932Z,6.70
2022-11-05T16:26:00.420Z,7.60
2022-11-05T16:28:02.714Z,9.10
2022-11-05T16:30:05.132Z,7.93
2022-11-05T16:32:14.982Z,8.70
2022-11-05T16:34:26.536Z,9.20
2022-11-05T16:36:30.884Z,8.88
2022-11-05T16:38:33.784Z,6.60
2022-11-05T16:40:35.347Z,8.68
2022-11-05T16:42:39.158Z,7.22
2022-11-05T16:44:40.636Z,8.18
2022-11-05T16:46:44.160Z,7.85
2022-11-05T16:48:45.633Z,9.82
2022-11-05T16:50:47.284Z,9.65
2022-11-05T16:52:49.457Z,8.32
2022-11-05T16:54:52.276Z,6.97
2022-11-05T16:56:53.777Z,6.82
2022-11-05T16:58:55.256Z,9.65
2022-11-05T17:01:01.784Z,7.32
2022-11-05T17:03:03.532Z,8.10
2022-11-05T17:05:06.956Z,6.63
2022-11-05T17:07:08.456Z,7.65
2022-11-05T17:09:09.964Z,5.80
2022-11-05T17:11:15.815Z,7.63
2022-11-05T17:15:45.782Z,6.75
2022-11-05T17:20:19.163Z,6.25
2022-11-05T17:22:20.635Z,8.50
2022-11-05T17:24:22.405Z,8.27
2022-11-05T17:26:25.253Z,6.35
2022-11-05T17:28:27.317Z,6.82
2022-11-05T17:30:28.953Z,7.35
2022-11-05T17:32:30.459Z,7.32
2022-11-05T17:34:31.995Z,6.63
2022-11-05T17:36:33.477Z,10.35
2022-11-05T17:38:35.169Z,6.47
2022-11-05T17:40:37.584Z,6.05
2022-11-05T17:42:40.614Z,8.38
2022-11-05T17:44:42.153Z,6.95
2022-11-05T17:46:43.658Z,5.43
2022-11-05T17:48:45.671Z,7.50
2022-11-05T17:50:49.403Z,7.65
2022-11-05T17:52:50.874Z,5.93
2022-11-05T17:54:52.340Z,6.57
2022-11-05T17:56:53.847Z,6.00
2022-11-05T17:58:56.663Z,8.40
2022-11-05T18:00:58.122Z,5.72
2022-11-05T18:02:59.648Z,5.45
2022-11-05T18:05:01.164Z,7.60
2022-11-05T18:07:02.636Z,8.02
2022-11-05T18:09:04.975Z,8.13
2022-11-05T18:11:06.431Z,6.70
2022-11-05T18:13:07.938Z,7.22
2022-11-05T18:15:11.883Z,7.80
2022-11-05T18:17:13.339Z,6.90
2022-11-05T18:19:15.044Z,5.85
2022-11-05T18:21:16.792Z,7.25
2022-11-05T18:23:18.305Z,7.03
2022-11-05T18:25:19.924Z,8.93
2022-11-05T18:27:21.951Z,6.80
2022-11-05T18:29:23.423Z,7.07
2022-11-05T18:31:26.283Z,9.07
2022-11-05T18:33:28.005Z,6.95
2022-11-05T18:35:29.531Z,5.53
2022-11-05T18:37:31.252Z,6.70
2022-11-05T18:39:32.721Z,8.85
2022-11-05T18:41:34.279Z,5.88
2022-11-05T18:43:35.795Z,7.05
2022-11-05T18:45:37.263Z,7.55
2022-11-05T18:47:40.135Z,6.97
2022-11-05T18:49:41.704Z,6.20
2022-11-05T18:51:43.288Z,7.55
2022-11-05T18:53:44.839Z,6.03
2022-11-05T18:55:46.320Z,5.22
2022-11-05T18:57:47.945Z,5.47
2022-11-05T18:59:49.593Z,8.07
2022-11-05T19:01:51.119Z,8.23
2022-11-05T19:03:54.714Z,8.23
2022-11-05T19:05:56.177Z,7.68
2022-11-05T19:07:58.186Z,8.38
2022-11-05T19:10:50.820Z,7.18
2022-11-05T19:12:52.837Z,5.85
2022-11-05T19:14:59.367Z,7.03
2022-11-05T19:17:08.984Z,6.68
2022-11-05T19:19:10.549Z,7.10
2022-11-05T19:21:15.005Z,10.73
2022-11-05T19:23:16.528Z,7.63
2022-11-05T19:25:18.037Z,7.30
2022-11-05T19:27:20.881Z,7.82
2022-11-05T19:29:22.421Z,9.90
2022-11-05T19:31:23.950Z,7.18
2022-11-05T19:33:25.946Z,8.00
2022-11-05T19:35:27.404Z,8.95
2022-11-05T19:37:28.887Z,8.20
2022-11-05T19:39:30.360Z,8.40
2022-11-05T19:41:31.925Z,9.43
2022-11-05T19:43:35.649Z,7.57
2022-11-05T19:45:44.659Z,9.90
2022-11-05T19:47:46.819Z,8.73
2022-11-05T19:49:48.293Z,8.63
2022-11-05T19:51:49.819Z,8.30
2022-11-05T19:53:52.159Z,9.27
2022-11-05T19:55:53.622Z,9.05
2022-11-05T19:57:55.064Z,9.90
2022-11-05T19:59:57.895Z,7.47
2022-11-05T20:01:59.468Z,14.52
2022-11-05T20:04:01.307Z,7.85
2022-11-05T20:06:04.742Z,10.10
2022-11-05T20:08:06.681Z,9.95
2022-11-05T20:10:08.819Z,9.93
2022-11-05T20:12:10.345Z,8.82
2022-11-05T20:14:11.926Z,11.30
2022-11-05T20:16:23.487Z,15.90
2022-11-05T20:18:25.652Z,8.52
2022-11-05T20:20:27.131Z,10.88
2022-11-05T20:22:28.596Z,9.10
2022-11-05T20:24:30.118Z,8.43
2022-11-05T20:26:31.695Z,8.80
2022-11-05T20:28:35.132Z,10.32
2022-11-05T20:30:38.533Z,8.48
2022-11-05T20:32:41.381Z,11.95
2022-11-05T20:34:42.962Z,11.43
2022-11-05T20:36:44.485Z,9.43
2022-11-05T20:38:48.209Z,12.23
2022-11-05T20:40:49.723Z,12.30
2022-11-05T20:42:51.189Z,10.20
2022-11-05T20:44:52.778Z,9.30
2022-11-05T20:46:54.291Z,9.40
2022-11-05T20:48:57.194Z,9.05
2022-11-05T20:50:59.061Z,11.60
2022-11-05T20:53:00.958Z,12.48
2022-11-05T20:55:03.110Z,10.43
2022-11-05T20:57:05.090Z,9.27
2022-11-05T20:59:07.016Z,10.43
2022-11-05T21:01:11.980Z,9.27
2022-11-05T21:03:13.509Z,10.80
2022-11-05T21:05:16.496Z,9.20
2022-11-05T21:07:18.000Z,10.02
2022-11-05T21:09:19.468Z,10.05
2022-11-05T21:11:21.372Z,12.00
2022-11-05T21:13:23.606Z,10.63
2022-11-05T21:15:25.146Z,12.55
2022-11-05T21:17:26.734Z,9.20
2022-11-05T21:19:30.380Z,9.77
2022-11-05T21:21:36.332Z,11.38
2022-11-05T21:23:40.234Z,10.40
2022-11-05T21:25:43.050Z,8.38
2022-11-05T21:27:44.558Z,10.27
2022-11-05T21:29:46.032Z,10.85
2022-11-05T21:31:47.547Z,11.27
2022-11-05T21:33:54.852Z,9.93
2022-11-05T21:35:57.343Z,8.60
2022-11-05T21:38:00.479Z,11.35
2022-11-05T21:40:01.956Z,8.32
2022-11-05T21:42:03.751Z,10.40
2022-11-05T21:44:05.251Z,9.45
2022-11-05T21:46:06.795Z,11.88
2022-11-05T21:48:08.920Z,11.02
2022-11-05T21:50:11.344Z,10.50
2022-11-05T21:52:13.111Z,13.52
2022-11-05T21:54:16.004Z,13.57
2022-11-05T21:56:21.459Z,10.98
2022-11-05T21:58:22.964Z,10.65
2022-11-05T22:00:24.620Z,12.02
2022-11-05T22:02:26.510Z,11.93
2022-11-05T22:04:28.768Z,12.43
2022-11-05T22:06:32.184Z,11.15
2022-11-05T22:08:33.688Z,12.63
2022-11-05T22:10:36.576Z,9.88
2022-11-05T22:12:38.289Z,9.85
2022-11-05T22:14:39.837Z,9.73
2022-11-05T22:16:41.392Z,10.93
2022-11-05T22:18:42.879Z,14.35
2022-11-05T22:20:44.393Z,11.68
2022-11-05T22:22:45.898Z,9.02
2022-11-05T22:24:47.386Z,13.85
2022-11-05T22:26:51.383Z,11.77
2022-11-05T22:28:53.422Z,14.90
2022-11-05T22:30:54.914Z,8.20
2022-11-05T22:32:56.457Z,11.70
2022-11-05T22:34:57.933Z,13.25
2022-11-05T22:36:59.421Z,11.75
2022-11-05T22:39:02.175Z,11.55
2022-11-05T22:41:07.082Z,12.50
2022-11-05T22:43:09.960Z,10.65
2022-11-05T22:45:11.562Z,12.75
2022-11-05T22:47:13.060Z,10.38
2022-11-05T22:49:15.135Z,15.63
2022-11-05T22:51:19.183Z,14.70
2022-11-05T22:53:20.732Z,14.32
2022-11-05T22:55:22.186Z,11.00
2022-11-05T22:57:23.690Z,10.82
2022-11-05T22:59:26.768Z,12.68
2022-11-05T23:01:28.627Z,12.18
2022-11-05T23:03:31.963Z,11.05
2022-11-05T23:05:33.437Z,13.38
2022-11-05T23:07:34.963Z,14.10
2022-11-05T23:09:36.467Z,11.77
2022-11-05T23:11:38.878Z,12.30
2022-11-05T23:13:40.344Z,14.90
2022-11-05T23:15:43.169Z,13.30
2022-11-05T23:17:44.928Z,12.02
2022-11-05T23:19:46.395Z,13.52
2022-11-05T23:21:47.839Z,12.02
2022-11-05T23:23:49.355Z,12.70
2022-11-05T23:25:56.219Z,14.05
2022-11-05T23:27:57.746Z,13.15
2022-11-05T23:30:00.141Z,14.55
2022-11-05T23:32:03.022Z,11.45
2022-11-05T23:34:04.489Z,14.00
2022-11-05T23:36:06.355Z,14.60
2022-11-05T23:38:07.888Z,13.68
2022-11-05T23:40:13.055Z,14.45
2022-11-05T23:42:14.659Z,18.58
2022-11-05T23:44:16.128Z,12.70
2022-11-05T23:46:17.643Z,16.27
2022-11-05T23:48:25.186Z,12.23
2022-11-05T23:50:27.285Z,13.68
2022-11-05T23:52:28.792Z,16.27
2022-11-05T23:54:30.306Z,16.90
2022-11-05T23:56:31.864Z,13.52
2022-11-05T23:58:34.148Z,15.70
